createdAt,value
2019-02-04T00:01:21.181Z,25.57
2019-02-04T00:03:51.115Z,25.33
2019-02-04T00:06:20.661Z,26.33
2019-02-04T00:08:50.112Z,25.03
2019-02-04T00:11:19.603Z,25.23
2019-02-04T00:13:49.059Z,25.07
2019-02-04T00:16:19.173Z,26.03
2019-02-04T00:18:48.814Z,27.00
2019-02-04T00:21:18.543Z,25.67
2019-02-04T00:23:48.353Z,27.17
2019-02-04T00:26:17.828Z,25.53
2019-02-04T00:28:47.291Z,24.37
2019-02-04T00:31:16.773Z,25.33
2019-02-04T00:33:46.311Z,26.97
2019-02-04T00:36:15.791Z,27.57
2019-02-04T00:38:45.437Z,25.57
2019-02-04T00:41:14.918Z,26.00
2019-02-04T00:43:44.818Z,25.47
2019-02-04T00:46:14.575Z,26.13
2019-02-04T00:48:44.064Z,25.73
2019-02-04T00:51:13.568Z,27.40
2019-02-04T00:53:43.050Z,26.67
2019-02-04T00:56:12.534Z,25.90
2019-02-04T00:58:42.359Z,24.43
2019-02-04T01:01:14.124Z,25.20
2019-02-04T01:03:43.614Z,24.03
2019-02-04T01:06:13.179Z,24.03
2019-02-04T01:08:42.650Z,24.00
2019-02-04T01:11:12.112Z,24.33
2019-02-04T01:13:41.618Z,24.27
2019-02-04T01:16:11.591Z,24.63
2019-02-04T01:18:41.081Z,22.93
2019-02-04T01:21:10.578Z,22.53
2019-02-04T01:23:40.046Z,23.17
2019-02-04T01:26:09.574Z,23.00
2019-02-04T01:28:39.242Z,21.57
2019-02-04T01:31:08.928Z,23.03
2019-02-04T01:33:38.466Z,21.90
2019-02-04T01:36:07.948Z,20.67
2019-02-04T01:38:37.554Z,21.57
2019-02-04T01:41:07.098Z,20.73
2019-02-04T01:43:36.646Z,20.20
2019-02-04T01:46:06.390Z,21.70
2019-02-04T01:48:35.900Z,20.03
2019-02-04T01:51:05.395Z,20.53
2019-02-04T01:53:34.930Z,19.07
2019-02-04T01:56:05.101Z,20.93
2019-02-04T01:58:34.597Z,20.50
2019-02-04T02:01:04.080Z,20.23
2019-02-04T02:03:33.558Z,20.57
2019-02-04T02:06:03.035Z,20.17
2019-02-04T02:08:34.297Z,21.30
2019-02-04T02:11:03.746Z,20.90
2019-02-04T02:13:33.235Z,20.23
2019-02-04T02:16:02.717Z,19.77
2019-02-04T02:18:32.224Z,21.37
2019-02-04T02:21:01.725Z,21.23
2019-02-04T02:23:31.739Z,21.23
2019-02-04T02:26:01.478Z,20.23
2019-02-04T02:28:30.962Z,20.43
2019-02-04T02:31:00.730Z,18.63
2019-02-04T02:33:30.560Z,20.30
2019-02-04T02:36:00.323Z,20.53
2019-02-04T02:38:30.195Z,20.63
2019-02-04T02:40:59.905Z,21.13
2019-02-04T02:43:29.465Z,20.07
2019-02-04T02:45:59.284Z,20.33
2019-02-04T02:48:29.117Z,20.73
2019-02-04T02:51:00.218Z,20.20
2019-02-04T02:53:29.789Z,21.13
2019-02-04T02:55:59.612Z,21.03
2019-02-04T02:58:29.174Z,20.00
2019-02-04T03:00:58.648Z,19.27
2019-02-04T03:03:28.133Z,21.17
2019-02-04T03:05:57.979Z,19.70
2019-02-04T03:08:27.833Z,19.80
2019-02-04T03:10:57.643Z,20.23
2019-02-04T03:13:27.149Z,18.93
2019-02-04T03:15:58.251Z,18.30
2019-02-04T03:18:29.853Z,19.23
2019-02-04T03:20:59.328Z,19.47
2019-02-04T03:23:29.417Z,19.43
2019-02-04T03:25:58.872Z,20.47
2019-02-04T03:28:28.354Z,19.80
2019-02-04T03:30:58.363Z,19.67
2019-02-04T03:33:28.035Z,20.60
2019-02-04T03:35:57.498Z,21.30
2019-02-04T03:38:27.004Z,19.70
2019-02-04T03:40:56.485Z,20.13
2019-02-04T03:43:25.991Z,20.57
2019-02-04T03:45:55.721Z,19.93
2019-02-04T03:48:25.575Z,19.27
2019-02-04T03:50:55.069Z,19.60
2019-02-04T03:53:26.181Z,19.37
2019-02-04T03:55:55.685Z,18.90
2019-02-04T03:58:25.148Z,19.30
2019-02-04T04:00:55.354Z,19.40
2019-02-04T04:03:24.962Z,19.33
2019-02-04T04:05:54.919Z,20.40
2019-02-04T04:08:24.693Z,20.30
2019-02-04T04:10:54.159Z,19.00
2019-02-04T04:13:23.672Z,19.97
2019-02-04T04:15:53.216Z,20.70
2019-02-04T04:18:22.697Z,20.77
2019-02-04T04:20:52.165Z,21.13
2019-02-04T04:23:22.032Z,20.37
2019-02-04T04:25:51.830Z,22.10
2019-02-04T04:28:21.680Z,20.87
2019-02-04T04:30:51.515Z,21.03
2019-02-04T04:33:21.061Z,22.20
2019-02-04T04:35:50.884Z,21.23
2019-02-04T04:38:20.358Z,22.77
2019-02-04T04:40:50.205Z,22.57
2019-02-04T04:43:19.688Z,23.70
2019-02-04T04:45:49.166Z,24.00
2019-02-04T04:48:26.321Z,25.00
2019-02-04T04:50:49.814Z,25.00
2019-02-04T04:53:19.656Z,23.77
2019-02-04T04:55:49.693Z,24.40
2019-02-04T04:58:19.166Z,23.07
2019-02-04T05:00:49.729Z,22.47
2019-02-04T05:03:26.748Z,22.57
2019-02-04T05:05:59.803Z,22.40
2019-02-04T05:08:34.350Z,21.50
2019-02-04T05:11:04.262Z,20.87
2019-02-04T05:13:35.455Z,22.17
2019-02-04T05:16:11.241Z,20.10
2019-02-04T05:18:52.431Z,20.90
2019-02-04T05:21:23.621Z,21.27
2019-02-04T05:23:57.115Z,21.43
2019-02-04T05:26:39.757Z,20.70
2019-02-04T05:29:07.470Z,18.97
2019-02-04T05:31:44.158Z,20.43
2019-02-04T05:34:19.079Z,19.20
2019-02-04T05:36:51.464Z,20.07
2019-02-04T05:39:26.362Z,19.93
2019-02-04T05:41:57.625Z,20.07
2019-02-04T05:44:36.402Z,19.13
2019-02-04T05:47:11.403Z,18.93
2019-02-04T05:49:46.642Z,19.83
2019-02-04T05:52:26.884Z,18.37
2019-02-04T05:55:07.938Z,19.10
2019-02-04T05:57:55.791Z,18.23
2019-02-04T06:00:27.314Z,18.60
2019-02-04T06:03:00.835Z,22.43
2019-02-04T06:05:30.500Z,21.80
2019-02-04T06:08:07.005Z,20.53
2019-02-04T06:10:38.594Z,17.70
2019-02-04T06:13:09.626Z,15.97
2019-02-04T06:15:40.439Z,17.93
2019-02-04T06:18:09.913Z,16.70
2019-02-04T06:20:39.677Z,18.07
2019-02-04T06:23:09.200Z,16.00
2019-02-04T06:25:39.689Z,17.33
2019-02-04T06:28:09.161Z,17.33
2019-02-04T06:30:38.684Z,17.87
2019-02-04T06:33:08.221Z,17.47
2019-02-04T06:35:37.730Z,17.03
2019-02-04T06:38:07.203Z,16.77
2019-02-04T06:40:36.690Z,17.23
2019-02-04T06:43:06.178Z,16.97
2019-02-04T06:45:35.656Z,16.20
2019-02-04T06:48:05.686Z,17.90
2019-02-04T06:50:35.170Z,18.13
2019-02-04T06:53:04.643Z,18.67
2019-02-04T06:55:34.301Z,18.57
2019-02-04T06:58:03.777Z,18.13
2019-02-04T07:00:33.265Z,17.47
2019-02-04T07:03:03.020Z,17.67
2019-02-04T07:05:43.219Z,17.70
2019-02-04T07:08:04.309Z,17.53
2019-02-04T07:10:33.893Z,18.17
2019-02-04T07:13:03.691Z,17.07
2019-02-04T07:15:33.519Z,16.03
2019-02-04T07:18:02.994Z,17.07
2019-02-04T07:20:32.488Z,15.90
2019-02-04T07:23:01.947Z,16.37
2019-02-04T07:25:31.421Z,14.70
2019-02-04T07:28:00.886Z,16.30
2019-02-04T07:30:30.554Z,15.03
2019-02-04T07:33:00.344Z,15.70
2019-02-04T07:35:29.896Z,14.27
2019-02-04T07:37:59.698Z,14.97
2019-02-04T07:40:33.939Z,13.67
2019-02-04T07:43:03.700Z,14.90
2019-02-04T07:45:33.453Z,16.40
2019-02-04T07:48:02.913Z,17.53
2019-02-04T07:50:32.390Z,16.87
2019-02-04T07:53:02.133Z,17.03
2019-02-04T07:55:31.614Z,14.30
2019-02-04T07:58:01.101Z,13.83
2019-02-04T08:00:35.283Z,14.37
2019-02-04T08:03:09.594Z,14.97
2019-02-04T08:05:42.478Z,13.83
2019-02-04T08:08:18.342Z,13.50
2019-02-04T08:11:01.291Z,12.00
2019-02-04T08:13:33.925Z,12.00
2019-02-04T08:16:19.047Z,13.13
2019-02-04T08:19:03.782Z,11.87
2019-02-04T08:21:39.151Z,12.30
2019-02-04T08:24:13.571Z,12.17
2019-02-04T08:26:47.159Z,12.10
2019-02-04T08:29:20.091Z,12.23
2019-02-04T08:32:03.631Z,11.67
2019-02-04T08:34:36.443Z,11.87
2019-02-04T08:37:12.629Z,11.63
2019-02-04T08:39:44.416Z,11.60
2019-02-04T08:42:23.701Z,11.73
2019-02-04T08:44:58.907Z,11.67
2019-02-04T08:47:35.461Z,11.53
2019-02-04T08:50:16.793Z,11.40
2019-02-04T08:52:49.355Z,12.13
2019-02-04T08:55:27.949Z,10.60
2019-02-04T08:58:02.622Z,10.87
2019-02-04T09:00:46.215Z,10.97
2019-02-04T09:03:18.018Z,11.67
2019-02-04T09:05:53.817Z,10.67
2019-02-04T09:08:34.933Z,11.20
2019-02-04T09:11:20.161Z,11.50
2019-02-04T09:14:06.814Z,11.37
2019-02-04T09:16:51.060Z,10.87
2019-02-04T09:19:25.207Z,10.23
2019-02-04T09:22:00.907Z,11.13
2019-02-04T09:24:40.385Z,11.57
2019-02-04T09:27:16.398Z,11.27
2019-02-04T09:29:54.590Z,11.33
2019-02-04T09:32:29.983Z,11.30
2019-02-04T09:34:57.997Z,11.30
2019-02-04T09:37:39.281Z,11.13
2019-02-04T09:40:31.627Z,11.50
2019-02-04T09:43:12.044Z,10.60
2019-02-04T09:45:52.297Z,11.17
2019-02-04T09:48:30.495Z,11.13
2019-02-04T09:51:14.651Z,10.27
2019-02-04T09:53:48.760Z,10.30
2019-02-04T09:56:30.356Z,10.17
2019-02-04T09:59:04.932Z,10.83
2019-02-04T10:01:43.178Z,11.17
2019-02-04T10:04:20.678Z,10.83
2019-02-04T10:06:55.334Z,9.77
2019-02-04T10:09:26.305Z,10.57
2019-02-04T10:12:00.576Z,11.63
2019-02-04T10:14:33.429Z,10.37
2019-02-04T10:17:02.894Z,9.83
2019-02-04T10:19:32.646Z,10.63
2019-02-04T10:22:02.110Z,11.17
2019-02-04T10:24:31.576Z,9.97
2019-02-04T10:27:01.091Z,9.93
2019-02-04T10:29:30.901Z,10.73
2019-02-04T10:32:00.394Z,9.83
2019-02-04T10:34:30.174Z,10.60
2019-02-04T10:36:59.679Z,10.97
2019-02-04T10:39:29.164Z,10.17
2019-02-04T10:41:58.616Z,11.67
2019-02-04T10:44:28.080Z,11.13
2019-02-04T10:46:57.872Z,10.83
2019-02-04T10:49:27.319Z,10.93
2019-02-04T10:51:57.071Z,11.13
2019-02-04T10:54:26.592Z,10.53
2019-02-04T10:56:56.117Z,11.00
2019-02-04T10:59:25.564Z,9.97
2019-02-04T11:01:55.568Z,11.57
2019-02-04T11:04:25.412Z,10.20
2019-02-04T11:06:55.367Z,11.00
2019-02-04T11:09:24.834Z,10.97
2019-02-04T11:11:54.325Z,10.00
2019-02-04T11:14:23.876Z,11.53
2019-02-04T11:16:53.911Z,10.90
2019-02-04T11:19:23.328Z,11.30
2019-02-04T11:21:52.842Z,10.50
2019-02-04T11:24:22.604Z,11.33
2019-02-04T11:26:52.092Z,10.00
2019-02-04T11:29:21.594Z,10.67
2019-02-04T11:31:51.083Z,10.90
2019-02-04T11:34:20.525Z,10.37
2019-02-04T11:36:50.007Z,10.57
2019-02-04T11:39:20.149Z,10.67
2019-02-04T11:41:49.958Z,9.83
2019-02-04T11:44:20.128Z,10.80
2019-02-04T11:46:49.686Z,10.80
2019-02-04T11:49:19.188Z,10.37
2019-02-04T11:51:48.692Z,10.47
2019-02-04T11:54:18.526Z,9.57
2019-02-04T11:56:47.998Z,10.37
2019-02-04T11:59:17.643Z,9.63
2019-02-04T12:01:47.113Z,10.43
2019-02-04T12:04:16.569Z,9.70
2019-02-04T12:06:46.060Z,9.30
2019-02-04T12:09:15.522Z,9.33
2019-02-04T12:11:45.111Z,9.23
2019-02-04T12:14:14.806Z,8.87
2019-02-04T12:16:44.282Z,8.87
2019-02-04T12:19:13.754Z,9.50
2019-02-04T12:21:43.218Z,8.10
2019-02-04T12:24:13.015Z,8.27
2019-02-04T12:26:42.807Z,9.90
2019-02-04T12:29:12.280Z,11.13
2019-02-04T12:31:42.032Z,9.93
2019-02-04T12:34:11.512Z,10.57
2019-02-04T12:36:41.015Z,10.70
2019-02-04T12:39:12.103Z,10.77
2019-02-04T12:41:42.199Z,10.10
2019-02-04T12:44:11.144Z,8.80
2019-02-04T12:46:40.657Z,9.70
2019-02-04T12:49:11.773Z,8.47
2019-02-04T12:51:41.574Z,8.80
2019-02-04T12:54:11.050Z,8.23
2019-02-04T12:56:40.809Z,9.47
2019-02-04T12:59:10.272Z,8.60
2019-02-04T13:01:39.814Z,7.33
2019-02-04T13:04:09.381Z,6.90
2019-02-04T13:06:38.837Z,7.63
2019-02-04T13:09:08.574Z,7.07
2019-02-04T13:11:38.024Z,6.67
2019-02-04T13:14:07.623Z,6.30
2019-02-04T13:16:37.087Z,5.97
2019-02-04T13:19:06.840Z,6.47
2019-02-04T13:21:44.983Z,7.10
2019-02-04T13:24:07.457Z,6.47
2019-02-04T13:26:36.932Z,6.20
2019-02-04T13:29:06.472Z,6.40
2019-02-04T13:31:35.915Z,5.67
2019-02-04T13:34:05.830Z,5.20
2019-02-04T13:36:35.294Z,5.43
2019-02-04T13:39:07.616Z,5.63
2019-02-04T13:41:37.074Z,5.33
2019-02-04T13:44:08.565Z,4.83
2019-02-04T13:46:38.079Z,5.17
2019-02-04T13:49:07.875Z,4.67
2019-02-04T13:51:37.604Z,4.80
2019-02-04T13:54:07.108Z,4.87
2019-02-04T13:56:36.551Z,4.13
2019-02-04T13:59:06.008Z,4.10
2019-02-04T14:01:35.543Z,4.57
2019-02-04T14:04:05.430Z,4.47
2019-02-04T14:06:34.953Z,4.10
2019-02-04T14:09:07.659Z,3.90
2019-02-04T14:11:37.112Z,3.97
2019-02-04T14:14:06.843Z,4.23
2019-02-04T14:16:36.645Z,3.63
2019-02-04T14:19:06.408Z,3.50
2019-02-04T14:21:36.160Z,3.23
2019-02-04T14:24:05.625Z,3.47
2019-02-04T14:26:35.113Z,3.50
2019-02-04T14:29:04.586Z,3.50
2019-02-04T14:31:35.414Z,3.77
2019-02-04T14:34:06.521Z,3.33
2019-02-04T14:36:36.013Z,3.80
2019-02-04T14:39:08.411Z,3.57
2019-02-04T14:41:37.896Z,3.60
2019-02-04T14:44:08.176Z,4.33
2019-02-04T14:46:46.674Z,3.53
2019-02-04T14:49:44.877Z,3.73
2019-02-04T14:52:29.934Z,3.77
2019-02-04T14:55:09.000Z,3.70
2019-02-04T14:57:56.626Z,3.83
2019-02-04T15:00:38.383Z,3.73
2019-02-04T15:03:20.184Z,4.10
2019-02-04T15:06:11.495Z,3.67
2019-02-04T15:09:01.907Z,4.10
2019-02-04T15:11:37.469Z,3.80
2019-02-04T15:14:18.932Z,3.63
2019-02-04T15:16:57.467Z,4.63
2019-02-04T15:19:45.511Z,3.83
2019-02-04T15:22:33.424Z,3.80
2019-02-04T15:25:09.524Z,5.20
2019-02-04T15:28:00.507Z,4.80
2019-02-04T15:30:51.079Z,4.80
2019-02-04T15:33:26.335Z,6.10
2019-02-04T15:36:30.753Z,5.30
2019-02-04T15:39:04.671Z,5.47
2019-02-04T15:41:43.229Z,5.97
2019-02-04T15:44:41.371Z,6.43
2019-02-04T15:47:13.995Z,5.53
2019-02-04T15:49:50.976Z,5.77
2019-02-04T15:52:20.523Z,6.53
2019-02-04T15:54:50.377Z,5.70
2019-02-04T15:57:20.210Z,5.60
2019-02-04T15:59:49.694Z,5.20
2019-02-04T16:02:19.155Z,5.53
2019-02-04T16:04:48.628Z,5.00
2019-02-04T16:07:18.072Z,5.30
2019-02-04T16:09:47.583Z,6.00
2019-02-04T16:12:17.471Z,5.97
2019-02-04T16:14:46.941Z,5.77
2019-02-04T16:17:16.396Z,5.90
2019-02-04T16:19:46.436Z,5.77
2019-02-04T16:22:15.914Z,6.27
2019-02-04T16:24:45.454Z,11.33
2019-02-04T16:27:15.209Z,17.97
2019-02-04T16:29:44.744Z,16.10
2019-02-04T16:32:14.252Z,12.67
2019-02-04T16:34:43.777Z,10.70
2019-02-04T16:37:13.273Z,9.20
2019-02-04T16:39:42.783Z,11.70
2019-02-04T16:42:12.254Z,9.40
2019-02-04T16:44:41.779Z,9.57
2019-02-04T16:47:11.238Z,9.73
2019-02-04T16:49:41.035Z,9.87
2019-02-04T16:52:10.493Z,10.03
2019-02-04T16:54:39.955Z,9.80
2019-02-04T16:57:09.404Z,9.43
2019-02-04T16:59:38.873Z,10.33
2019-02-04T17:02:08.323Z,9.37
2019-02-04T17:04:37.821Z,9.60
2019-02-04T17:07:07.345Z,11.33
2019-02-04T17:09:37.172Z,9.90
2019-02-04T17:12:07.006Z,11.87
2019-02-04T17:14:36.550Z,12.80
2019-02-04T17:17:06.005Z,13.60
2019-02-04T17:19:35.491Z,13.03
2019-02-04T17:22:04.969Z,13.97
2019-02-04T17:24:34.814Z,15.23
2019-02-04T17:27:04.367Z,15.73
2019-02-04T17:29:33.844Z,16.07
2019-02-04T17:32:03.337Z,13.50
2019-02-04T17:34:33.000Z,14.90
2019-02-04T17:37:02.488Z,17.13
2019-02-04T17:39:32.251Z,17.90
2019-02-04T17:42:02.214Z,18.77
2019-02-04T17:44:32.012Z,17.47
2019-02-04T17:47:01.518Z,16.60
2019-02-04T17:49:31.011Z,17.63
2019-02-04T17:52:00.513Z,19.27
2019-02-04T17:54:30.258Z,20.43
2019-02-04T17:57:00.057Z,21.40
2019-02-04T17:59:29.965Z,19.17
2019-02-04T18:01:59.459Z,18.50
2019-02-04T18:04:29.811Z,19.93
2019-02-04T18:06:59.336Z,21.23
2019-02-04T18:09:28.886Z,21.33
2019-02-04T18:11:58.364Z,18.80
2019-02-04T18:14:28.133Z,20.33
2019-02-04T18:16:57.616Z,20.27
2019-02-04T18:19:27.114Z,19.57
2019-02-04T18:21:57.270Z,19.30
2019-02-04T18:24:27.073Z,19.30
2019-02-04T18:26:57.417Z,18.53
2019-02-04T18:29:26.897Z,18.90
2019-02-04T18:31:56.585Z,19.07
2019-02-04T18:34:26.062Z,18.13
2019-02-04T18:36:55.595Z,18.40
2019-02-04T18:39:25.134Z,17.23
2019-02-04T18:41:55.696Z,17.73
2019-02-04T18:44:25.201Z,18.30
2019-02-04T18:46:54.717Z,16.83
2019-02-04T18:49:24.643Z,17.73
2019-02-04T18:51:54.700Z,17.23
2019-02-04T18:54:24.443Z,18.40
2019-02-04T18:56:53.951Z,17.93
2019-02-04T18:59:23.514Z,17.53
2019-02-04T19:01:53.714Z,18.70
2019-02-04T19:04:23.191Z,17.13
2019-02-04T19:06:52.987Z,17.17
2019-02-04T19:09:22.466Z,16.83
2019-02-04T19:11:52.081Z,18.30
2019-02-04T19:14:21.497Z,18.93
2019-02-04T19:16:51.547Z,18.87
2019-02-04T19:19:21.038Z,19.53
2019-02-04T19:21:50.540Z,17.50
2019-02-04T19:24:20.164Z,17.27
2019-02-04T19:26:49.715Z,18.97
2019-02-04T19:29:19.175Z,18.17
2019-02-04T19:31:49.221Z,17.77
2019-02-04T19:34:18.750Z,18.93
2019-02-04T19:36:49.332Z,19.50
2019-02-04T19:39:19.222Z,18.57
2019-02-04T19:41:48.784Z,20.60
2019-02-04T19:44:18.443Z,18.77
2019-02-04T19:46:47.900Z,18.90
2019-02-04T19:51:10.678Z,18.30
2019-02-04T19:53:37.069Z,19.67
2019-02-04T19:56:03.457Z,22.83
2019-02-04T19:58:29.328Z,24.30
2019-02-04T20:00:55.431Z,23.57
2019-02-04T20:03:21.317Z,22.77
2019-02-04T20:05:47.223Z,21.83
2019-02-04T20:08:13.221Z,20.90
2019-02-04T20:10:39.218Z,21.53
2019-02-04T20:13:05.798Z,22.23
2019-02-04T20:15:32.349Z,22.40
2019-02-04T20:17:58.425Z,21.83
2019-02-04T20:20:25.009Z,23.13
2019-02-04T20:22:51.063Z,21.70
2019-02-04T20:25:19.475Z,20.00
2019-02-04T20:27:45.705Z,19.20
2019-02-04T20:30:17.806Z,20.70
2019-02-04T20:32:44.154Z,20.83
2019-02-04T20:35:10.368Z,20.90
2019-02-04T20:37:36.263Z,19.73
2019-02-04T20:40:05.520Z,21.43
2019-02-04T20:42:31.498Z,20.77
2019-02-04T20:44:57.509Z,21.40
2019-02-04T20:47:23.418Z,19.97
2019-02-04T20:49:49.402Z,19.83
2019-02-04T20:52:16.011Z,18.63
2019-02-04T20:54:45.016Z,20.27
2019-02-04T20:57:09.693Z,19.33
2019-02-04T20:59:35.839Z,19.77
2019-02-04T21:02:01.738Z,20.37
2019-02-04T21:04:27.630Z,20.53
2019-02-04T21:06:56.075Z,20.33
2019-02-04T21:09:21.678Z,20.20
2019-02-04T21:11:48.597Z,20.83
2019-02-04T21:14:14.471Z,21.10
2019-02-04T21:16:40.358Z,21.80
2019-02-04T21:19:06.277Z,22.30
2019-02-04T21:21:32.169Z,21.70
2019-02-04T21:23:58.069Z,20.50
2019-02-04T21:26:23.979Z,20.07
2019-02-04T21:28:49.860Z,20.00
2019-02-04T21:31:16.365Z,20.93
2019-02-04T21:33:42.523Z,19.10
2019-02-04T21:36:08.411Z,19.47
2019-02-04T21:38:34.275Z,20.30
2019-02-04T21:41:01.069Z,20.43
2019-02-04T21:43:27.029Z,20.97
2019-02-04T21:45:52.909Z,19.20
2019-02-04T21:48:19.147Z,20.53
2019-02-04T21:50:45.321Z,19.93
2019-02-04T21:53:11.222Z,19.27
2019-02-04T21:55:37.465Z,20.43
2019-02-04T21:58:05.053Z,19.00
2019-02-04T22:00:33.931Z,18.53
2019-02-04T22:03:00.112Z,18.93
2019-02-04T22:05:28.494Z,19.63
2019-02-04T22:07:54.484Z,19.57
2019-02-04T22:10:22.146Z,19.90
2019-02-04T22:12:48.090Z,19.67
2019-02-04T22:15:13.965Z,20.83
2019-02-04T22:17:39.941Z,21.07
2019-02-04T22:20:09.117Z,22.13
2019-02-04T22:22:35.006Z,22.10
2019-02-04T22:25:00.924Z,22.30
2019-02-04T22:27:27.421Z,22.40
2019-02-04T22:29:53.303Z,21.80
2019-02-04T22:32:19.456Z,20.60
2019-02-04T22:34:45.884Z,19.80
2019-02-04T22:37:12.104Z,18.37
2019-02-04T22:39:37.983Z,19.03
2019-02-04T22:42:03.863Z,19.20
2019-02-04T22:44:29.742Z,18.90
2019-02-04T22:46:55.647Z,17.43
2019-02-04T22:49:21.524Z,18.00
2019-02-04T22:51:48.049Z,16.50
2019-02-04T22:54:13.967Z,17.30
2019-02-04T22:56:39.859Z,16.50
2019-02-04T22:59:05.840Z,17.40
2019-02-04T23:01:35.785Z,15.83
2019-02-04T23:04:01.668Z,16.83
2019-02-04T23:06:27.567Z,18.30
2019-02-04T23:08:53.839Z,16.20
2019-02-04T23:11:19.776Z,16.20
2019-02-04T23:13:45.680Z,18.33
2019-02-04T23:16:11.814Z,16.90
2019-02-04T23:18:37.724Z,16.77
2019-02-04T23:21:03.613Z,17.90
2019-02-04T23:23:29.516Z,17.63
2019-02-04T23:25:55.763Z,17.20
2019-02-04T23:28:21.992Z,17.70
2019-02-04T23:30:47.924Z,17.17
2019-02-04T23:33:13.810Z,16.57
2019-02-04T23:35:39.674Z,15.53
2019-02-04T23:38:05.680Z,16.43
2019-02-04T23:40:31.551Z,16.00
2019-02-04T23:42:57.542Z,16.70
2019-02-04T23:45:23.420Z,17.93
2019-02-04T23:47:49.301Z,18.50
2019-02-04T23:50:15.969Z,18.70
2019-02-04T23:52:41.846Z,16.80
2019-02-04T23:55:09.525Z,17.27
2019-02-04T23:57:35.404Z,17.63
